sensor_id;sensor_type;location;lat;lon;timestamp;temperature;humidity
35559;DHT22;21661;50.794;-1.066;2022-07-29T00:02:14;18.10;99.90
35559;DHT22;21661;50.794;-1.066;2022-07-29T00:04:40;18.10;99.90
35559;DHT22;21661;50.794;-1.066;2022-07-29T00:07:06;18.10;99.90
35559;DHT22;21661;50.794;-1.066;2022-07-29T00:09:31;18.20;99.90
35559;DHT22;21661;50.794;-1.066;2022-07-29T00:12:00;18.10;99.90
35559;DHT22;21661;50.794;-1.066;2022-07-29T00:14:26;18.10;99.90
35559;DHT22;21661;50.794;-1.066;2022-07-29T00:16:52;18.10;99.90
35559;DHT22;21661;50.794;-1.066;2022-07-29T00:19:18;18.00;99.90
35559;DHT22;21661;50.794;-1.066;2022-07-29T00:21:43;18.00;99.90
35559;DHT22;21661;50.794;-1.066;2022-07-29T00:24:09;18.00;99.90
35559;DHT22;21661;50.794;-1.066;2022-07-29T00:26:35;18.00;99.90
35559;DHT22;21661;50.794;-1.066;2022-07-29T00:29:02;17.90;99.90
35559;DHT22;21661;50.794;-1.066;2022-07-29T00:31:28;17.90;99.90
35559;DHT22;21661;50.794;-1.066;2022-07-29T00:33:54;17.90;99.90
35559;DHT22;21661;50.794;-1.066;2022-07-29T00:36:20;17.90;99.90
35559;DHT22;21661;50.794;-1.066;2022-07-29T00:38:51;17.90;99.90
35559;DHT22;21661;50.794;-1.066;2022-07-29T00:41:18;17.90;99.90
35559;DHT22;21661;50.794;-1.066;2022-07-29T00:43:44;17.80;99.90
35559;DHT22;21661;50.794;-1.066;2022-07-29T00:46:10;17.70;99.90
35559;DHT22;21661;50.794;-1.066;2022-07-29T00:48:36;17.70;99.90
35559;DHT22;21661;50.794;-1.066;2022-07-29T00:51:04;17.70;99.90
35559;DHT22;21661;50.794;-1.066;2022-07-29T00:53:30;17.70;99.90
35559;DHT22;21661;50.794;-1.066;2022-07-29T00:55:57;17.70;99.90
35559;DHT22;21661;50.794;-1.066;2022-07-29T00:58:23;17.70;99.90
35559;DHT22;21661;50.794;-1.066;2022-07-29T01:00:49;17.70;99.90
35559;DHT22;21661;50.794;-1.066;2022-07-29T01:03:15;17.70;99.90
35559;DHT22;21661;50.794;-1.066;2022-07-29T01:05:43;17.60;99.90
35559;DHT22;21661;50.794;-1.066;2022-07-29T01:08:11;17.60;99.90
35559;DHT22;21661;50.794;-1.066;2022-07-29T01:10:38;17.70;99.90
35559;DHT22;21661;50.794;-1.066;2022-07-29T01:13:04;17.60;99.90
35559;DHT22;21661;50.794;-1.066;2022-07-29T01:15:31;17.60;99.90
35559;DHT22;21661;50.794;-1.066;2022-07-29T01:18:04;17.60;99.90
35559;DHT22;21661;50.794;-1.066;2022-07-29T01:20:53;17.60;99.90
35559;DHT22;21661;50.794;-1.066;2022-07-29T01:26:32;17.50;99.90
35559;DHT22;21661;50.794;-1.066;2022-07-29T01:32:01;17.40;99.90
35559;DHT22;21661;50.794;-1.066;2022-07-29T01:37:19;17.40;99.90
35559;DHT22;21661;50.794;-1.066;2022-07-29T01:39:47;17.40;99.90
35559;DHT22;21661;50.794;-1.066;2022-07-29T01:42:15;17.40;99.90
35559;DHT22;21661;50.794;-1.066;2022-07-29T01:47:15;17.30;99.90
35559;DHT22;21661;50.794;-1.066;2022-07-29T01:49:47;17.30;99.90
35559;DHT22;21661;50.794;-1.066;2022-07-29T01:52:52;17.20;99.90
35559;DHT22;21661;50.794;-1.066;2022-07-29T01:55:20;17.20;99.90
35559;DHT22;21661;50.794;-1.066;2022-07-29T01:57:48;17.10;99.90
35559;DHT22;21661;50.794;-1.066;2022-07-29T02:00:15;17.10;99.90
35559;DHT22;21661;50.794;-1.066;2022-07-29T02:02:43;17.10;99.90
35559;DHT22;21661;50.794;-1.066;2022-07-29T02:05:12;17.20;99.90
35559;DHT22;21661;50.794;-1.066;2022-07-29T02:07:40;17.20;99.90
35559;DHT22;21661;50.794;-1.066;2022-07-29T02:10:08;17.10;99.90
35559;DHT22;21661;50.794;-1.066;2022-07-29T02:12:35;17.00;99.90
35559;DHT22;21661;50.794;-1.066;2022-07-29T02:15:03;17.20;99.90
35559;DHT22;21661;50.794;-1.066;2022-07-29T02:17:41;17.10;99.90
35559;DHT22;21661;50.794;-1.066;2022-07-29T02:20:09;17.10;99.90
35559;DHT22;21661;50.794;-1.066;2022-07-29T02:22:38;17.10;99.90
35559;DHT22;21661;50.794;-1.066;2022-07-29T02:25:06;17.10;99.90
35559;DHT22;21661;50.794;-1.066;2022-07-29T02:27:33;17.00;99.90
35559;DHT22;21661;50.794;-1.066;2022-07-29T02:30:02;17.00;99.90
35559;DHT22;21661;50.794;-1.066;2022-07-29T02:32:29;16.90;99.90
35559;DHT22;21661;50.794;-1.066;2022-07-29T02:34:57;16.90;99.90
35559;DHT22;21661;50.794;-1.066;2022-07-29T02:37:24;16.90;99.90
35559;DHT22;21661;50.794;-1.066;2022-07-29T02:39:52;17.00;99.90
35559;DHT22;21661;50.794;-1.066;2022-07-29T02:42:21;16.90;99.90
35559;DHT22;21661;50.794;-1.066;2022-07-29T02:44:48;16.90;99.90
35559;DHT22;21661;50.794;-1.066;2022-07-29T02:47:41;16.90;99.90
35559;DHT22;21661;50.794;-1.066;2022-07-29T02:50:44;16.90;99.90
35559;DHT22;21661;50.794;-1.066;2022-07-29T02:53:17;16.90;99.90
35559;DHT22;21661;50.794;-1.066;2022-07-29T02:55:51;16.80;99.90
35559;DHT22;21661;50.794;-1.066;2022-07-29T02:58:40;16.80;99.90
35559;DHT22;21661;50.794;-1.066;2022-07-29T03:01:22;16.80;99.90
35559;DHT22;21661;50.794;-1.066;2022-07-29T03:03:50;16.80;99.90
35559;DHT22;21661;50.794;-1.066;2022-07-29T03:06:18;16.80;99.90
35559;DHT22;21661;50.794;-1.066;2022-07-29T03:08:45;16.80;99.90
35559;DHT22;21661;50.794;-1.066;2022-07-29T03:11:11;16.80;99.90
35559;DHT22;21661;50.794;-1.066;2022-07-29T03:13:37;16.80;99.90
35559;DHT22;21661;50.794;-1.066;2022-07-29T03:16:04;16.70;99.90
35559;DHT22;21661;50.794;-1.066;2022-07-29T03:18:31;16.80;99.90
35559;DHT22;21661;50.794;-1.066;2022-07-29T03:20:57;16.80;99.90
35559;DHT22;21661;50.794;-1.066;2022-07-29T03:23:23;16.80;99.90
35559;DHT22;21661;50.794;-1.066;2022-07-29T03:25:51;16.80;99.90
35559;DHT22;21661;50.794;-1.066;2022-07-29T03:28:17;16.80;99.90
35559;DHT22;21661;50.794;-1.066;2022-07-29T03:30:43;16.80;99.90
35559;DHT22;21661;50.794;-1.066;2022-07-29T03:33:09;16.70;99.90
35559;DHT22;21661;50.794;-1.066;2022-07-29T03:35:34;16.70;99.90
35559;DHT22;21661;50.794;-1.066;2022-07-29T03:38:00;16.70;99.90
35559;DHT22;21661;50.794;-1.066;2022-07-29T03:40:50;16.60;99.90
35559;DHT22;21661;50.794;-1.066;2022-07-29T03:43:15;16.60;99.90
35559;DHT22;21661;50.794;-1.066;2022-07-29T03:45:49;16.60;99.90
35559;DHT22;21661;50.794;-1.066;2022-07-29T03:48:20;16.60;99.90
35559;DHT22;21661;50.794;-1.066;2022-07-29T03:50:46;16.60;99.90
35559;DHT22;21661;50.794;-1.066;2022-07-29T03:53:12;16.60;99.90
35559;DHT22;21661;50.794;-1.066;2022-07-29T03:55:44;16.60;99.90
35559;DHT22;21661;50.794;-1.066;2022-07-29T03:58:10;16.60;99.90
35559;DHT22;21661;50.794;-1.066;2022-07-29T04:00:37;16.70;99.90
35559;DHT22;21661;50.794;-1.066;2022-07-29T04:03:04;16.70;99.90
35559;DHT22;21661;50.794;-1.066;2022-07-29T04:05:30;16.70;99.90
35559;DHT22;21661;50.794;-1.066;2022-07-29T04:07:56;16.70;99.90
35559;DHT22;21661;50.794;-1.066;2022-07-29T04:10:22;16.70;99.90
35559;DHT22;21661;50.794;-1.066;2022-07-29T04:12:49;16.70;99.90
35559;DHT22;21661;50.794;-1.066;2022-07-29T04:15:14;16.60;99.90
35559;DHT22;21661;50.794;-1.066;2022-07-29T04:17:40;16.60;99.90
35559;DHT22;21661;50.794;-1.066;2022-07-29T04:20:06;16.50;99.90
35559;DHT22;21661;50.794;-1.066;2022-07-29T04:22:32;16.50;99.90
35559;DHT22;21661;50.794;-1.066;2022-07-29T04:24:58;16.60;99.90
35559;DHT22;21661;50.794;-1.066;2022-07-29T04:27:23;16.60;99.90
35559;DHT22;21661;50.794;-1.066;2022-07-29T04:29:49;16.60;99.90
35559;DHT22;21661;50.794;-1.066;2022-07-29T04:32:15;16.50;99.90
35559;DHT22;21661;50.794;-1.066;2022-07-29T04:34:40;16.60;99.90
35559;DHT22;21661;50.794;-1.066;2022-07-29T04:37:06;16.60;99.90
35559;DHT22;21661;50.794;-1.066;2022-07-29T04:39:32;16.60;99.90
35559;DHT22;21661;50.794;-1.066;2022-07-29T04:41:57;16.50;99.90
35559;DHT22;21661;50.794;-1.066;2022-07-29T04:44:23;16.50;99.90
35559;DHT22;21661;50.794;-1.066;2022-07-29T04:46:48;16.50;99.90
35559;DHT22;21661;50.794;-1.066;2022-07-29T04:49:14;16.50;99.90
35559;DHT22;21661;50.794;-1.066;2022-07-29T04:51:40;16.60;99.90
35559;DHT22;21661;50.794;-1.066;2022-07-29T04:54:05;16.60;99.90
35559;DHT22;21661;50.794;-1.066;2022-07-29T04:56:31;16.60;99.90
35559;DHT22;21661;50.794;-1.066;2022-07-29T04:58:57;16.70;99.90
35559;DHT22;21661;50.794;-1.066;2022-07-29T05:01:23;16.60;99.90
35559;DHT22;21661;50.794;-1.066;2022-07-29T05:03:48;16.70;99.90
35559;DHT22;21661;50.794;-1.066;2022-07-29T05:06:14;16.70;99.90
35559;DHT22;21661;50.794;-1.066;2022-07-29T05:08:40;16.80;99.90
35559;DHT22;21661;50.794;-1.066;2022-07-29T05:11:05;16.80;99.90
35559;DHT22;21661;50.794;-1.066;2022-07-29T05:13:31;16.80;99.90
35559;DHT22;21661;50.794;-1.066;2022-07-29T05:15:57;16.90;99.90
35559;DHT22;21661;50.794;-1.066;2022-07-29T05:18:24;16.80;99.90
35559;DHT22;21661;50.794;-1.066;2022-07-29T05:20:50;16.80;99.90
35559;DHT22;21661;50.794;-1.066;2022-07-29T05:23:16;16.80;99.90
35559;DHT22;21661;50.794;-1.066;2022-07-29T05:25:41;16.80;99.90
35559;DHT22;21661;50.794;-1.066;2022-07-29T05:28:07;16.80;99.90
35559;DHT22;21661;50.794;-1.066;2022-07-29T05:30:33;16.80;99.90
35559;DHT22;21661;50.794;-1.066;2022-07-29T05:32:58;16.90;99.90
35559;DHT22;21661;50.794;-1.066;2022-07-29T05:35:24;16.90;99.90
35559;DHT22;21661;50.794;-1.066;2022-07-29T05:37:50;16.90;99.90
35559;DHT22;21661;50.794;-1.066;2022-07-29T05:40:15;17.00;99.90
35559;DHT22;21661;50.794;-1.066;2022-07-29T05:42:41;17.00;99.90
35559;DHT22;21661;50.794;-1.066;2022-07-29T05:45:07;17.00;99.90
35559;DHT22;21661;50.794;-1.066;2022-07-29T05:47:33;17.00;99.90
35559;DHT22;21661;50.794;-1.066;2022-07-29T05:49:59;17.00;99.90
35559;DHT22;21661;50.794;-1.066;2022-07-29T05:52:25;17.00;99.90
35559;DHT22;21661;50.794;-1.066;2022-07-29T05:54:51;17.10;99.90
35559;DHT22;21661;50.794;-1.066;2022-07-29T05:57:22;17.00;99.90
35559;DHT22;21661;50.794;-1.066;2022-07-29T05:59:49;17.10;99.90
35559;DHT22;21661;50.794;-1.066;2022-07-29T06:02:15;17.10;99.90
35559;DHT22;21661;50.794;-1.066;2022-07-29T06:04:41;17.10;99.90
35559;DHT22;21661;50.794;-1.066;2022-07-29T06:07:06;17.20;99.90
35559;DHT22;21661;50.794;-1.066;2022-07-29T06:09:33;17.20;99.90
35559;DHT22;21661;50.794;-1.066;2022-07-29T06:11:59;17.30;99.90
35559;DHT22;21661;50.794;-1.066;2022-07-29T06:14:26;17.30;99.90
35559;DHT22;21661;50.794;-1.066;2022-07-29T06:16:52;17.30;99.90
35559;DHT22;21661;50.794;-1.066;2022-07-29T06:19:18;17.40;99.90
35559;DHT22;21661;50.794;-1.066;2022-07-29T06:21:45;17.50;99.90
35559;DHT22;21661;50.794;-1.066;2022-07-29T06:24:12;17.50;99.90
35559;DHT22;21661;50.794;-1.066;2022-07-29T06:26:39;17.60;99.90
35559;DHT22;21661;50.794;-1.066;2022-07-29T06:29:06;17.60;99.90
35559;DHT22;21661;50.794;-1.066;2022-07-29T06:31:32;17.70;99.90
35559;DHT22;21661;50.794;-1.066;2022-07-29T06:33:57;17.70;99.90
35559;DHT22;21661;50.794;-1.066;2022-07-29T06:36:23;17.70;99.90
35559;DHT22;21661;50.794;-1.066;2022-07-29T06:38:49;17.70;99.90
35559;DHT22;21661;50.794;-1.066;2022-07-29T06:41:14;17.70;99.90
35559;DHT22;21661;50.794;-1.066;2022-07-29T06:43:43;17.70;99.90
35559;DHT22;21661;50.794;-1.066;2022-07-29T06:46:12;17.70;99.90
35559;DHT22;21661;50.794;-1.066;2022-07-29T06:48:39;17.80;99.90
35559;DHT22;21661;50.794;-1.066;2022-07-29T06:51:06;17.80;99.90
35559;DHT22;21661;50.794;-1.066;2022-07-29T06:53:33;17.90;99.90
35559;DHT22;21661;50.794;-1.066;2022-07-29T06:55:59;17.90;99.90
35559;DHT22;21661;50.794;-1.066;2022-07-29T06:58:29;17.90;99.90
35559;DHT22;21661;50.794;-1.066;2022-07-29T07:00:56;18.00;99.90
35559;DHT22;21661;50.794;-1.066;2022-07-29T07:03:22;18.00;99.90
35559;DHT22;21661;50.794;-1.066;2022-07-29T07:05:48;18.00;99.90
35559;DHT22;21661;50.794;-1.066;2022-07-29T07:08:14;18.10;99.90
35559;DHT22;21661;50.794;-1.066;2022-07-29T07:10:41;18.10;99.90
35559;DHT22;21661;50.794;-1.066;2022-07-29T07:13:07;18.10;99.90
35559;DHT22;21661;50.794;-1.066;2022-07-29T07:15:33;18.10;99.90
35559;DHT22;21661;50.794;-1.066;2022-07-29T07:18:00;18.10;99.90
35559;DHT22;21661;50.794;-1.066;2022-07-29T07:20:26;18.10;99.90
35559;DHT22;21661;50.794;-1.066;2022-07-29T07:22:51;18.20;99.90
35559;DHT22;21661;50.794;-1.066;2022-07-29T07:25:17;18.10;99.90
35559;DHT22;21661;50.794;-1.066;2022-07-29T07:27:44;18.10;99.90
35559;DHT22;21661;50.794;-1.066;2022-07-29T07:30:10;18.20;99.90
35559;DHT22;21661;50.794;-1.066;2022-07-29T07:32:36;18.10;99.90
35559;DHT22;21661;50.794;-1.066;2022-07-29T07:35:03;18.10;99.90
35559;DHT22;21661;50.794;-1.066;2022-07-29T07:37:29;18.10;99.90
35559;DHT22;21661;50.794;-1.066;2022-07-29T07:39:55;18.10;99.90
35559;DHT22;21661;50.794;-1.066;2022-07-29T07:42:21;18.20;99.90
35559;DHT22;21661;50.794;-1.066;2022-07-29T07:44:47;18.30;99.90
35559;DHT22;21661;50.794;-1.066;2022-07-29T07:47:14;18.30;99.90
35559;DHT22;21661;50.794;-1.066;2022-07-29T07:49:40;18.40;99.90
35559;DHT22;21661;50.794;-1.066;2022-07-29T07:52:05;18.40;99.90
35559;DHT22;21661;50.794;-1.066;2022-07-29T07:54:31;18.60;99.90
35559;DHT22;21661;50.794;-1.066;2022-07-29T07:56:57;18.60;99.90
35559;DHT22;21661;50.794;-1.066;2022-07-29T07:59:23;18.70;99.90
35559;DHT22;21661;50.794;-1.066;2022-07-29T08:01:50;18.80;99.90
35559;DHT22;21661;50.794;-1.066;2022-07-29T08:04:16;18.80;99.90
35559;DHT22;21661;50.794;-1.066;2022-07-29T08:06:41;18.90;99.90
35559;DHT22;21661;50.794;-1.066;2022-07-29T08:09:07;19.00;99.90
35559;DHT22;21661;50.794;-1.066;2022-07-29T08:11:33;19.00;99.90
35559;DHT22;21661;50.794;-1.066;2022-07-29T08:13:59;19.00;99.90
35559;DHT22;21661;50.794;-1.066;2022-07-29T08:16:27;19.10;99.90
35559;DHT22;21661;50.794;-1.066;2022-07-29T08:18:52;19.10;99.90
35559;DHT22;21661;50.794;-1.066;2022-07-29T08:21:22;19.20;99.90
35559;DHT22;21661;50.794;-1.066;2022-07-29T08:23:48;19.30;99.90
35559;DHT22;21661;50.794;-1.066;2022-07-29T08:26:37;19.40;99.90
35559;DHT22;21661;50.794;-1.066;2022-07-29T08:29:02;19.60;99.90
35559;DHT22;21661;50.794;-1.066;2022-07-29T08:31:28;19.60;99.90
35559;DHT22;21661;50.794;-1.066;2022-07-29T08:33:53;19.80;99.90
35559;DHT22;21661;50.794;-1.066;2022-07-29T08:36:21;19.90;99.90
35559;DHT22;21661;50.794;-1.066;2022-07-29T08:38:46;20.10;99.90
35559;DHT22;21661;50.794;-1.066;2022-07-29T08:41:14;20.30;99.90
35559;DHT22;21661;50.794;-1.066;2022-07-29T08:43:40;20.40;99.90
35559;DHT22;21661;50.794;-1.066;2022-07-29T08:46:07;20.50;99.90
35559;DHT22;21661;50.794;-1.066;2022-07-29T08:48:32;20.60;99.90
35559;DHT22;21661;50.794;-1.066;2022-07-29T08:50:59;20.70;99.90
35559;DHT22;21661;50.794;-1.066;2022-07-29T08:53:28;20.80;99.90
35559;DHT22;21661;50.794;-1.066;2022-07-29T08:55:54;21.00;99.90
35559;DHT22;21661;50.794;-1.066;2022-07-29T08:58:21;21.10;99.90
35559;DHT22;21661;50.794;-1.066;2022-07-29T09:00:55;21.10;99.90
35559;DHT22;21661;50.794;-1.066;2022-07-29T09:03:24;21.20;99.90
35559;DHT22;21661;50.794;-1.066;2022-07-29T09:05:50;21.20;99.90
35559;DHT22;21661;50.794;-1.066;2022-07-29T09:08:17;21.30;99.90
35559;DHT22;21661;50.794;-1.066;2022-07-29T09:10:44;21.30;99.90
35559;DHT22;21661;50.794;-1.066;2022-07-29T09:13:10;21.30;99.90
35559;DHT22;21661;50.794;-1.066;2022-07-29T09:15:35;21.20;99.90
35559;DHT22;21661;50.794;-1.066;2022-07-29T09:18:01;21.10;99.90
35559;DHT22;21661;50.794;-1.066;2022-07-29T09:20:28;21.10;99.90
35559;DHT22;21661;50.794;-1.066;2022-07-29T09:23:14;21.00;99.90
35559;DHT22;21661;50.794;-1.066;2022-07-29T09:25:40;21.00;99.90
35559;DHT22;21661;50.794;-1.066;2022-07-29T09:28:10;21.10;99.90
35559;DHT22;21661;50.794;-1.066;2022-07-29T09:30:57;21.00;99.90
35559;DHT22;21661;50.794;-1.066;2022-07-29T09:33:33;21.10;99.90
35559;DHT22;21661;50.794;-1.066;2022-07-29T09:36:08;21.10;99.90
35559;DHT22;21661;50.794;-1.066;2022-07-29T09:38:35;21.20;99.90
35559;DHT22;21661;50.794;-1.066;2022-07-29T09:41:03;21.20;99.90
35559;DHT22;21661;50.794;-1.066;2022-07-29T09:43:29;21.20;99.90
35559;DHT22;21661;50.794;-1.066;2022-07-29T09:45:55;21.30;99.90
35559;DHT22;21661;50.794;-1.066;2022-07-29T09:48:25;21.30;99.90
35559;DHT22;21661;50.794;-1.066;2022-07-29T09:50:51;21.40;99.90
35559;DHT22;21661;50.794;-1.066;2022-07-29T09:56:00;21.50;99.90
35559;DHT22;21661;50.794;-1.066;2022-07-29T09:58:25;21.50;99.90
35559;DHT22;21661;50.794;-1.066;2022-07-29T10:00:52;21.60;99.90
35559;DHT22;21661;50.794;-1.066;2022-07-29T10:03:18;21.70;99.90
35559;DHT22;21661;50.794;-1.066;2022-07-29T10:05:45;21.70;99.90
35559;DHT22;21661;50.794;-1.066;2022-07-29T10:08:12;21.80;99.90
35559;DHT22;21661;50.794;-1.066;2022-07-29T10:10:42;21.80;99.90
35559;DHT22;21661;50.794;-1.066;2022-07-29T10:13:14;21.90;99.90
35559;DHT22;21661;50.794;-1.066;2022-07-29T10:15:42;22.00;99.90
35559;DHT22;21661;50.794;-1.066;2022-07-29T10:18:10;21.90;99.90
35559;DHT22;21661;50.794;-1.066;2022-07-29T10:20:37;22.00;99.90
35559;DHT22;21661;50.794;-1.066;2022-07-29T10:23:04;22.10;99.90
35559;DHT22;21661;50.794;-1.066;2022-07-29T10:25:29;22.10;99.90
35559;DHT22;21661;50.794;-1.066;2022-07-29T10:27:55;22.10;99.90
35559;DHT22;21661;50.794;-1.066;2022-07-29T10:30:22;22.10;99.90
35559;DHT22;21661;50.794;-1.066;2022-07-29T10:39:37;22.20;99.90
35559;DHT22;21661;50.794;-1.066;2022-07-29T10:44:34;22.20;99.90
35559;DHT22;21661;50.794;-1.066;2022-07-29T10:47:00;22.20;99.90
35559;DHT22;21661;50.794;-1.066;2022-07-29T10:49:26;22.30;99.90
35559;DHT22;21661;50.794;-1.066;2022-07-29T10:52:09;22.30;99.90
35559;DHT22;21661;50.794;-1.066;2022-07-29T10:54:46;22.40;99.90
35559;DHT22;21661;50.794;-1.066;2022-07-29T10:57:18;22.30;99.90
35559;DHT22;21661;50.794;-1.066;2022-07-29T10:59:51;22.40;99.90
35559;DHT22;21661;50.794;-1.066;2022-07-29T11:05:14;22.30;99.90
35559;DHT22;21661;50.794;-1.066;2022-07-29T11:10:43;22.30;99.90
35559;DHT22;21661;50.794;-1.066;2022-07-29T11:13:09;22.40;99.90
35559;DHT22;21661;50.794;-1.066;2022-07-29T11:15:54;22.50;99.90
35559;DHT22;21661;50.794;-1.066;2022-07-29T11:18:21;22.60;99.90
35559;DHT22;21661;50.794;-1.066;2022-07-29T11:20:51;22.60;99.90
35559;DHT22;21661;50.794;-1.066;2022-07-29T11:26:12;22.60;99.90
35559;DHT22;21661;50.794;-1.066;2022-07-29T11:28:30;22.70;99.90
35559;DHT22;21661;50.794;-1.066;2022-07-29T11:30:56;22.80;99.90
35559;DHT22;21661;50.794;-1.066;2022-07-29T11:33:32;22.90;99.90
35559;DHT22;21661;50.794;-1.066;2022-07-29T11:36:12;22.80;99.90
35559;DHT22;21661;50.794;-1.066;2022-07-29T11:38:39;22.80;99.90
35559;DHT22;21661;50.794;-1.066;2022-07-29T11:41:24;22.90;99.90
35559;DHT22;21661;50.794;-1.066;2022-07-29T11:43:57;22.90;99.90
35559;DHT22;21661;50.794;-1.066;2022-07-29T11:49:24;23.00;99.90
35559;DHT22;21661;50.794;-1.066;2022-07-29T11:51:55;22.90;99.90
35559;DHT22;21661;50.794;-1.066;2022-07-29T11:54:34;23.00;99.90
35559;DHT22;21661;50.794;-1.066;2022-07-29T11:57:00;23.00;99.90
35559;DHT22;21661;50.794;-1.066;2022-07-29T11:59:26;23.00;99.90
35559;DHT22;21661;50.794;-1.066;2022-07-29T12:01:59;23.10;99.90
35559;DHT22;21661;50.794;-1.066;2022-07-29T12:04:25;23.10;99.90
35559;DHT22;21661;50.794;-1.066;2022-07-29T12:06:54;23.20;99.90
35559;DHT22;21661;50.794;-1.066;2022-07-29T12:09:21;23.10;99.90
35559;DHT22;21661;50.794;-1.066;2022-07-29T12:11:47;23.00;99.90
35559;DHT22;21661;50.794;-1.066;2022-07-29T12:14:29;23.00;99.90
35559;DHT22;21661;50.794;-1.066;2022-07-29T12:16:55;23.10;99.90
35559;DHT22;21661;50.794;-1.066;2022-07-29T12:19:21;23.30;99.90
35559;DHT22;21661;50.794;-1.066;2022-07-29T12:21:48;23.40;99.90
35559;DHT22;21661;50.794;-1.066;2022-07-29T12:24:14;23.40;99.90
35559;DHT22;21661;50.794;-1.066;2022-07-29T12:26:58;23.40;99.90
35559;DHT22;21661;50.794;-1.066;2022-07-29T12:29:25;23.40;99.90
35559;DHT22;21661;50.794;-1.066;2022-07-29T12:31:53;23.60;99.90
35559;DHT22;21661;50.794;-1.066;2022-07-29T12:34:27;23.60;99.90
35559;DHT22;21661;50.794;-1.066;2022-07-29T12:36:53;23.60;99.90
35559;DHT22;21661;50.794;-1.066;2022-07-29T12:39:20;23.60;99.90
35559;DHT22;21661;50.794;-1.066;2022-07-29T12:41:46;23.60;99.90
35559;DHT22;21661;50.794;-1.066;2022-07-29T12:44:12;23.60;99.90
35559;DHT22;21661;50.794;-1.066;2022-07-29T12:46:38;23.70;99.90
35559;DHT22;21661;50.794;-1.066;2022-07-29T12:49:03;23.70;99.90
35559;DHT22;21661;50.794;-1.066;2022-07-29T12:51:39;23.60;99.90
35559;DHT22;21661;50.794;-1.066;2022-07-29T12:54:09;23.60;99.90
35559;DHT22;21661;50.794;-1.066;2022-07-29T12:56:42;23.50;99.90
35559;DHT22;21661;50.794;-1.066;2022-07-29T12:59:26;23.50;99.90
35559;DHT22;21661;50.794;-1.066;2022-07-29T13:01:52;23.30;99.90
35559;DHT22;21661;50.794;-1.066;2022-07-29T13:04:29;23.30;99.90
35559;DHT22;21661;50.794;-1.066;2022-07-29T13:07:00;23.30;99.90
35559;DHT22;21661;50.794;-1.066;2022-07-29T13:09:40;23.30;99.90
35559;DHT22;21661;50.794;-1.066;2022-07-29T13:12:11;23.30;99.90
35559;DHT22;21661;50.794;-1.066;2022-07-29T13:14:45;23.30;99.90
35559;DHT22;21661;50.794;-1.066;2022-07-29T13:17:20;23.20;99.90
35559;DHT22;21661;50.794;-1.066;2022-07-29T13:19:50;23.30;99.90
35559;DHT22;21661;50.794;-1.066;2022-07-29T13:22:22;23.30;99.90
35559;DHT22;21661;50.794;-1.066;2022-07-29T13:24:50;23.30;99.90
35559;DHT22;21661;50.794;-1.066;2022-07-29T13:27:17;23.40;99.90
35559;DHT22;21661;50.794;-1.066;2022-07-29T13:29:43;23.50;99.90
35559;DHT22;21661;50.794;-1.066;2022-07-29T13:32:09;23.60;99.90
35559;DHT22;21661;50.794;-1.066;2022-07-29T13:34:34;23.70;99.90
35559;DHT22;21661;50.794;-1.066;2022-07-29T13:37:00;23.70;99.90
35559;DHT22;21661;50.794;-1.066;2022-07-29T13:39:26;23.70;99.90
35559;DHT22;21661;50.794;-1.066;2022-07-29T13:41:51;23.70;99.90
35559;DHT22;21661;50.794;-1.066;2022-07-29T13:44:17;23.90;99.90
35559;DHT22;21661;50.794;-1.066;2022-07-29T13:46:44;24.00;99.90
35559;DHT22;21661;50.794;-1.066;2022-07-29T13:49:10;24.00;99.90
35559;DHT22;21661;50.794;-1.066;2022-07-29T13:51:37;24.00;99.90
35559;DHT22;21661;50.794;-1.066;2022-07-29T13:54:03;24.00;99.90
35559;DHT22;21661;50.794;-1.066;2022-07-29T13:56:29;24.10;99.90
35559;DHT22;21661;50.794;-1.066;2022-07-29T13:58:55;24.00;99.90
35559;DHT22;21661;50.794;-1.066;2022-07-29T14:01:20;23.80;99.90
35559;DHT22;21661;50.794;-1.066;2022-07-29T14:03:46;23.80;99.90
35559;DHT22;21661;50.794;-1.066;2022-07-29T14:06:12;23.60;99.90
35559;DHT22;21661;50.794;-1.066;2022-07-29T14:08:38;23.70;99.90
35559;DHT22;21661;50.794;-1.066;2022-07-29T14:11:04;23.80;99.90
35559;DHT22;21661;50.794;-1.066;2022-07-29T14:13:29;23.70;99.90
35559;DHT22;21661;50.794;-1.066;2022-07-29T14:15:55;23.70;99.90
35559;DHT22;21661;50.794;-1.066;2022-07-29T14:18:21;23.80;99.90
35559;DHT22;21661;50.794;-1.066;2022-07-29T14:20:47;23.90;99.90
35559;DHT22;21661;50.794;-1.066;2022-07-29T14:23:12;24.00;99.90
35559;DHT22;21661;50.794;-1.066;2022-07-29T14:25:38;24.10;99.90
35559;DHT22;21661;50.794;-1.066;2022-07-29T14:28:04;24.20;99.90
35559;DHT22;21661;50.794;-1.066;2022-07-29T14:30:30;24.30;99.90
35559;DHT22;21661;50.794;-1.066;2022-07-29T14:32:55;24.20;99.90
35559;DHT22;21661;50.794;-1.066;2022-07-29T14:35:21;24.20;99.90
35559;DHT22;21661;50.794;-1.066;2022-07-29T14:37:46;24.20;99.90
35559;DHT22;21661;50.794;-1.066;2022-07-29T14:40:12;24.20;99.90
35559;DHT22;21661;50.794;-1.066;2022-07-29T14:42:38;24.20;99.90
35559;DHT22;21661;50.794;-1.066;2022-07-29T14:45:05;24.10;99.90
35559;DHT22;21661;50.794;-1.066;2022-07-29T14:47:32;24.10;99.90
35559;DHT22;21661;50.794;-1.066;2022-07-29T14:49:57;24.10;99.90
35559;DHT22;21661;50.794;-1.066;2022-07-29T14:52:23;24.10;99.90
35559;DHT22;21661;50.794;-1.066;2022-07-29T14:54:49;24.00;99.90
35559;DHT22;21661;50.794;-1.066;2022-07-29T14:57:14;23.90;99.90
35559;DHT22;21661;50.794;-1.066;2022-07-29T14:59:40;23.80;99.90
35559;DHT22;21661;50.794;-1.066;2022-07-29T15:02:06;23.80;99.90
35559;DHT22;21661;50.794;-1.066;2022-07-29T15:04:31;23.80;99.90
35559;DHT22;21661;50.794;-1.066;2022-07-29T15:06:57;23.60;99.90
35559;DHT22;21661;50.794;-1.066;2022-07-29T15:09:23;23.60;99.90
35559;DHT22;21661;50.794;-1.066;2022-07-29T15:11:49;23.80;99.90
35559;DHT22;21661;50.794;-1.066;2022-07-29T15:14:15;23.80;99.90
35559;DHT22;21661;50.794;-1.066;2022-07-29T15:16:40;23.80;99.90
35559;DHT22;21661;50.794;-1.066;2022-07-29T15:19:08;23.70;99.90
35559;DHT22;21661;50.794;-1.066;2022-07-29T15:21:34;23.60;99.90
35559;DHT22;21661;50.794;-1.066;2022-07-29T15:24:00;23.70;99.90
35559;DHT22;21661;50.794;-1.066;2022-07-29T15:26:26;23.80;99.90
35559;DHT22;21661;50.794;-1.066;2022-07-29T15:28:52;23.90;99.90
35559;DHT22;21661;50.794;-1.066;2022-07-29T15:31:18;23.90;99.90
35559;DHT22;21661;50.794;-1.066;2022-07-29T15:33:44;23.80;99.90
35559;DHT22;21661;50.794;-1.066;2022-07-29T15:36:10;23.80;99.90
35559;DHT22;21661;50.794;-1.066;2022-07-29T15:38:38;23.80;99.90
35559;DHT22;21661;50.794;-1.066;2022-07-29T15:41:06;23.80;99.90
35559;DHT22;21661;50.794;-1.066;2022-07-29T15:43:32;23.80;99.90
35559;DHT22;21661;50.794;-1.066;2022-07-29T15:46:00;23.80;99.90
35559;DHT22;21661;50.794;-1.066;2022-07-29T15:48:44;23.70;99.90
35559;DHT22;21661;50.794;-1.066;2022-07-29T15:51:09;23.80;99.90
35559;DHT22;21661;50.794;-1.066;2022-07-29T15:53:35;23.80;99.90
35559;DHT22;21661;50.794;-1.066;2022-07-29T15:56:01;23.80;99.90